Impacts TAF Board INFO
FOR SITUATIONAL AWARENESS. NOT TO BE USED FOR FLIGHT PLANNING PURPOSES.
IDs:

KDFW - Dallas-Ft Worth Intl, TX, US

Issued at 1458 UTC 19 Nov 2017
Updated at 1550 UTC 19 Nov 2017
Potential Impact None Slight Moderate High
Time1453Z 19/16Z 19/17Z 19/18Z 19/19Z 19/20Z 19/21Z 19/22Z 19/23Z 20/00Z 20/01Z 20/02Z 20/03Z 20/04Z>>
Type OBS PRVL PRVL PRVL PRVL PRVL PRVL PRVL PRVL PRVL PRVL PRVL PRVL PRVL
VIS 10 >6 >6 >6 >6 >6 >6 >6 >6 >6 >6 >6 >6 >6
CIG -- -- -- -- -- -- -- -- -- -- -- -- -- --
Cover SCT FEW FEW FEW FEW FEW FEW FEW FEW FEW FEW FEW SCT SCT
FltCat VFR VFR VFR VFR VFR VFR VFR VFR VFR VFR VFR VFR VFR VFR
WX -- -- -- -- -- -- -- -- -- -- -- -- -- --
WDir 330 330 330 330 330 330 330 330 330 330 330 330 150 150
WSpd 6 4 4 4 4 4 4 4 4 4 4 4 5 5
WGst -- -- -- -- -- -- -- -- -- -- -- -- -- --

Raw TAF
KDFW 191458Z 1915/2018 33004KT P6SM FEW300
  FM200300 15005KT P6SM SCT300
  FM201700 18011KT P6SM BKN300


Raw METAR
KDFW 191453Z 33006KT 10SM SCT300 09/02 A3038 RMK AO2 SLP286 T00940022 53023 $
KDFW 191353Z 32005KT 10SM CLR 07/02 A3036 RMK AO2 SLP278 T00720017 $
KDFW 191253Z 32005KT 10SM CLR 05/01 A3032 RMK AO2 SLP267 T00500011 $

METAR Board
Radar Display
Forecast Discussion

FOR SITUATIONAL AWARENESS. NOT TO BE USED FOR FLIGHT PLANNING PURPOSES.